Terminal Aerodrome Forecast
Issued by NWS

Home | Current Version | Previous Version | Text Only | Print | Product List | Glossary On
Versions: 1 2 3 4 5 6 7 8 9 10 11 12 13 14 15 16 17 18 19 20 21 22 23 24 25 26 27 28 29 30 31 32 33
000
FTUS43 KLOT 211100
TAFORD
TAF
KORD 211126Z 2112/2218 17007KT 6SM HZ OVC035
      TEMPO 2112/2115 5SM -DZSN OVC030
     FM211700 18012KT P6SM OVC025
     FM220000 16010KT P6SM BKN020 OVC035
     FM220900 15009KT P6SM OVC035
     FM221200 14013KT P6SM OVC040=

USA.gov is the U.S. government's official web portal to all federal, state and local government web resources and services.